createdAt,value
2018-02-17T00:01:23.740Z,23.55
2018-02-17T00:03:52.413Z,25.30
2018-02-17T00:06:21.077Z,20.30
2018-02-17T00:08:49.760Z,25.83
2018-02-17T00:11:18.466Z,28.30
2018-02-17T00:13:47.149Z,24.25
2018-02-17T00:16:15.645Z,26.77
2018-02-17T00:18:44.344Z,29.73
2018-02-17T00:21:12.839Z,23.33
2018-02-17T00:23:41.327Z,25.42
2018-02-17T00:26:10.000Z,26.85
2018-02-17T00:28:38.486Z,25.77
2018-02-17T00:31:07.168Z,29.20
2018-02-17T00:33:35.867Z,31.27
2018-02-17T00:36:04.231Z,27.02
2018-02-17T00:38:32.899Z,26.10
2018-02-17T00:41:01.249Z,27.65
2018-02-17T00:43:29.728Z,24.95
2018-02-17T00:45:58.417Z,21.85
2018-02-17T00:48:27.099Z,34.78
2018-02-17T00:50:55.784Z,28.30
2018-02-17T00:53:24.477Z,26.67
2018-02-17T00:55:53.181Z,29.55
2018-02-17T00:58:22.641Z,28.95
2018-02-17T01:00:51.331Z,21.80
2018-02-17T01:03:20.017Z,26.75
2018-02-17T01:05:48.699Z,31.20
2018-02-17T01:08:17.393Z,28.10
2018-02-17T01:10:46.095Z,30.17
2018-02-17T01:13:14.767Z,30.58
2018-02-17T01:15:43.461Z,27.45
2018-02-17T01:18:12.177Z,34.78
2018-02-17T01:20:40.860Z,24.87
2018-02-17T01:23:09.554Z,26.80
2018-02-17T01:25:38.263Z,32.80
2018-02-17T01:28:07.716Z,33.50
2018-02-17T01:30:36.395Z,24.85
2018-02-17T01:33:05.061Z,26.87
2018-02-17T01:35:33.740Z,26.50
2018-02-17T01:38:02.435Z,27.27
2018-02-17T01:40:31.177Z,21.98
2018-02-17T01:42:59.943Z,23.17
2018-02-17T01:45:28.521Z,31.33
2018-02-17T01:47:57.295Z,24.45
2018-02-17T01:50:32.880Z,26.00
2018-02-17T01:53:01.123Z,35.25
2018-02-17T01:55:30.632Z,23.87
2018-02-17T01:57:59.230Z,28.83
2018-02-17T02:00:28.005Z,27.70
2018-02-17T02:02:56.764Z,22.98
2018-02-17T02:05:26.327Z,28.42
2018-02-17T02:07:55.095Z,30.45
2018-02-17T02:10:23.855Z,24.52
2018-02-17T02:12:53.388Z,27.60
2018-02-17T02:15:22.169Z,29.77
2018-02-17T02:17:50.947Z,24.83
2018-02-17T02:20:19.388Z,29.17
2018-02-17T02:22:48.156Z,30.42
2018-02-17T02:25:16.916Z,24.12
2018-02-17T02:27:45.690Z,20.75
2018-02-17T02:30:14.444Z,28.05
2018-02-17T02:32:43.198Z,26.73
2018-02-17T02:35:11.958Z,29.80
2018-02-17T02:37:40.386Z,23.30
2018-02-17T02:40:08.819Z,26.05
2018-02-17T02:42:37.579Z,24.92
2018-02-17T02:45:06.344Z,24.20
2018-02-17T02:47:35.108Z,34.95
2018-02-17T02:50:03.535Z,24.37
2018-02-17T02:52:32.292Z,31.17
2018-02-17T02:55:01.060Z,25.27
2018-02-17T02:57:29.639Z,24.58
2018-02-17T02:59:58.403Z,24.55
2018-02-17T03:02:27.934Z,33.40
2018-02-17T03:04:56.794Z,21.87
2018-02-17T03:07:25.539Z,22.37
2018-02-17T03:09:54.298Z,25.05
2018-02-17T03:12:23.053Z,26.65
2018-02-17T03:14:51.807Z,26.62
2018-02-17T03:17:20.568Z,29.87
2018-02-17T03:19:49.316Z,34.78
2018-02-17T03:22:18.065Z,20.00
2018-02-17T03:24:46.833Z,23.08
2018-02-17T03:27:15.611Z,20.25
2018-02-17T03:29:45.123Z,24.98
2018-02-17T03:32:13.879Z,23.33
2018-02-17T03:34:42.632Z,22.35
2018-02-17T03:37:11.489Z,18.55
2018-02-17T03:39:40.235Z,24.77
2018-02-17T03:42:08.998Z,26.35
2018-02-17T03:44:37.752Z,26.85
2018-02-17T03:47:06.506Z,25.70
2018-02-17T03:49:35.256Z,27.08
2018-02-17T03:52:04.011Z,22.55
2018-02-17T03:54:33.531Z,26.77
2018-02-17T03:57:03.171Z,24.23
2018-02-17T03:59:31.920Z,21.85
2018-02-17T04:02:02.000Z,19.60
2018-02-17T04:04:30.767Z,22.35
2018-02-17T04:06:59.516Z,25.80
2018-02-17T04:09:29.051Z,28.60
2018-02-17T04:11:57.484Z,23.27
2018-02-17T04:14:27.020Z,27.95
2018-02-17T04:16:55.780Z,23.00
2018-02-17T04:19:25.316Z,29.73
2018-02-17T04:21:54.080Z,23.80
2018-02-17T04:24:23.599Z,22.37
2018-02-17T04:26:52.363Z,28.67
2018-02-17T04:29:21.121Z,25.95
2018-02-17T04:31:49.892Z,18.60
2018-02-17T04:34:18.659Z,33.38
2018-02-17T04:36:47.258Z,24.90
2018-02-17T04:39:15.827Z,22.62
2018-02-17T04:41:48.833Z,21.27
2018-02-17T04:44:17.946Z,24.80
2018-02-17T04:46:48.423Z,23.90
2018-02-17T04:49:32.597Z,20.75
2018-02-17T04:52:01.176Z,25.98
2018-02-17T04:54:30.580Z,25.02
2018-02-17T05:00:05.556Z,24.98
2018-02-17T05:02:36.616Z,19.45
2018-02-17T05:05:19.733Z,24.75
2018-02-17T05:07:54.824Z,23.48
2018-02-17T05:10:24.174Z,23.25
2018-02-17T05:12:52.765Z,23.23
2018-02-17T05:15:21.348Z,27.02
2018-02-17T05:17:55.807Z,25.23
2018-02-17T05:20:43.840Z,21.05
2018-02-17T05:23:30.775Z,22.75
2018-02-17T05:26:00.117Z,25.17
2018-02-17T05:28:34.620Z,20.60
2018-02-17T05:31:03.196Z,23.15
2018-02-17T05:33:37.433Z,23.75
2018-02-17T05:36:13.180Z,21.50
2018-02-17T05:38:52.555Z,19.23
2018-02-17T05:41:39.819Z,21.42
2018-02-17T05:44:08.055Z,23.02
2018-02-17T05:46:36.636Z,24.87
2018-02-17T05:49:05.973Z,22.42
2018-02-17T05:51:35.316Z,24.33
2018-02-17T05:54:04.072Z,20.90
2018-02-17T05:56:32.841Z,26.15
2018-02-17T05:59:02.373Z,23.58
2018-02-17T06:01:31.126Z,26.25
2018-02-17T06:04:00.644Z,20.17
2018-02-17T06:06:30.165Z,24.77
2018-02-17T06:08:58.920Z,22.27
2018-02-17T06:11:27.480Z,21.25
2018-02-17T06:13:56.236Z,25.58
2018-02-17T06:16:25.003Z,21.00
2018-02-17T06:18:54.536Z,26.75
2018-02-17T06:21:23.295Z,25.80
2018-02-17T06:23:52.815Z,29.85
2018-02-17T06:26:21.564Z,25.70
2018-02-17T06:28:50.373Z,31.42
2018-02-17T06:31:19.886Z,26.30
2018-02-17T06:33:49.403Z,30.25
2018-02-17T06:36:18.152Z,24.35
2018-02-17T06:38:46.900Z,24.48
2018-02-17T06:41:15.661Z,20.75
2018-02-17T06:43:44.435Z,29.63
2018-02-17T06:46:13.186Z,26.20
2018-02-17T06:48:41.935Z,28.90
2018-02-17T06:51:10.691Z,22.87
2018-02-17T06:53:39.440Z,20.12
2018-02-17T06:56:08.188Z,26.67
2018-02-17T06:58:37.530Z,23.77
2018-02-17T07:01:06.293Z,21.55
2018-02-17T07:03:35.055Z,30.40
2018-02-17T07:06:04.577Z,31.52
2018-02-17T07:08:34.092Z,25.58
2018-02-17T07:11:02.848Z,31.23
2018-02-17T07:13:31.612Z,28.50
2018-02-17T07:16:00.367Z,29.20
2018-02-17T07:18:29.220Z,30.88
2018-02-17T07:20:58.832Z,32.17
2018-02-17T07:23:28.357Z,27.75
2018-02-17T07:25:57.880Z,26.60
2018-02-17T07:28:26.463Z,24.20
2018-02-17T07:30:55.229Z,37.85
2018-02-17T07:33:24.756Z,34.88
2018-02-17T07:35:53.599Z,31.62
2018-02-17T07:38:22.357Z,33.58
2018-02-17T07:40:51.125Z,38.97
2018-02-17T07:43:19.885Z,28.70
2018-02-17T07:45:49.399Z,33.13
2018-02-17T07:48:18.919Z,30.23
2018-02-17T07:50:47.668Z,27.65
2018-02-17T07:53:16.428Z,29.60
2018-02-17T07:55:45.184Z,35.33
2018-02-17T07:58:13.939Z,29.15
2018-02-17T08:00:42.701Z,29.83
2018-02-17T08:03:11.483Z,35.47
2018-02-17T08:05:40.247Z,31.80
2018-02-17T08:08:09.012Z,31.15
2018-02-17T08:10:38.546Z,30.65
2018-02-17T08:13:07.315Z,46.25
2018-02-17T08:15:35.750Z,28.25
2018-02-17T08:18:04.519Z,27.00
2018-02-17T08:20:34.041Z,31.08
2018-02-17T08:23:06.813Z,32.47
2018-02-17T08:25:41.062Z,28.98
2018-02-17T08:28:09.831Z,31.85
2018-02-17T08:30:38.432Z,32.28
2018-02-17T08:33:07.799Z,31.30
2018-02-17T08:44:29.779Z,31.35
2018-02-17T08:49:32.691Z,39.28
2018-02-17T08:52:01.475Z,32.83
2018-02-17T08:54:34.968Z,34.95
2018-02-17T09:02:54.586Z,33.92
2018-02-17T09:05:23.160Z,31.02
2018-02-17T09:07:52.488Z,38.08
2018-02-17T09:10:26.379Z,38.22
2018-02-17T09:12:55.980Z,34.95
2018-02-17T09:15:24.747Z,31.42
2018-02-17T09:17:53.510Z,34.00
2018-02-17T09:20:22.272Z,33.75
2018-02-17T09:22:51.032Z,40.05
2018-02-17T09:25:19.792Z,30.27
2018-02-17T09:27:48.554Z,40.05
2018-02-17T09:30:17.320Z,38.35
2018-02-17T09:32:46.085Z,42.97
2018-02-17T09:35:14.840Z,37.95
2018-02-17T09:37:43.408Z,42.75
2018-02-17T09:40:12.164Z,36.53
2018-02-17T09:42:40.911Z,37.35
2018-02-17T09:45:09.688Z,39.80
2018-02-17T09:51:10.406Z,35.28
2018-02-17T09:53:38.982Z,46.63
2018-02-17T09:56:07.740Z,37.70
2018-02-17T09:58:37.280Z,40.38
2018-02-17T10:01:05.876Z,38.95
2018-02-17T10:03:34.649Z,32.15
2018-02-17T10:06:03.645Z,39.88
2018-02-17T10:08:32.420Z,34.28
2018-02-17T10:11:01.195Z,40.65
2018-02-17T10:13:30.780Z,36.95
2018-02-17T10:15:59.595Z,39.40
2018-02-17T10:18:29.126Z,36.35
2018-02-17T10:20:57.710Z,33.05
2018-02-17T10:23:26.482Z,36.30
2018-02-17T10:25:55.829Z,48.70
2018-02-17T10:28:24.409Z,37.67
2018-02-17T10:30:53.180Z,35.42
2018-02-17T10:33:21.954Z,38.92
2018-02-17T10:35:50.724Z,50.30
2018-02-17T10:38:20.335Z,35.95
2018-02-17T10:40:49.872Z,38.05
2018-02-17T10:43:18.722Z,43.90
2018-02-17T10:45:47.486Z,35.65
2018-02-17T10:48:16.256Z,44.10
2018-02-17T10:50:45.016Z,36.40
2018-02-17T10:53:14.624Z,40.47
2018-02-17T10:55:43.387Z,44.60
2018-02-17T10:58:12.157Z,40.15
2018-02-17T11:00:40.952Z,50.33
2018-02-17T11:03:09.724Z,36.53
2018-02-17T11:05:38.486Z,41.22
2018-02-17T11:08:07.240Z,37.45
2018-02-17T11:10:36.757Z,35.55
2018-02-17T11:13:06.283Z,40.25
2018-02-17T11:15:35.060Z,41.47
2018-02-17T11:18:03.823Z,39.70
2018-02-17T11:20:32.585Z,42.80
2018-02-17T11:23:01.388Z,44.67
2018-02-17T11:25:30.306Z,40.10
2018-02-17T11:27:59.838Z,38.63
2018-02-17T11:30:28.792Z,37.28
2018-02-17T11:32:59.081Z,37.75
2018-02-17T11:35:27.844Z,36.83
2018-02-17T11:37:56.604Z,38.97
2018-02-17T11:40:26.143Z,41.25
2018-02-17T11:42:55.107Z,37.40
2018-02-17T11:45:24.640Z,36.05
2018-02-17T11:47:53.414Z,38.13
2018-02-17T11:50:22.184Z,33.17
2018-02-17T11:52:51.520Z,35.72
2018-02-17T11:55:20.131Z,36.28
2018-02-17T11:57:48.708Z,30.88
2018-02-17T12:00:17.474Z,30.00
2018-02-17T12:02:46.265Z,33.72
2018-02-17T12:05:15.027Z,36.08
2018-02-17T12:07:44.556Z,36.05
2018-02-17T12:10:13.309Z,40.92
2018-02-17T12:12:42.072Z,31.20
2018-02-17T12:15:10.679Z,32.97
2018-02-17T12:17:39.496Z,35.42
2018-02-17T12:20:09.033Z,40.55
2018-02-17T12:22:37.801Z,37.67
2018-02-17T12:25:06.596Z,32.55
2018-02-17T12:27:35.380Z,36.95
2018-02-17T12:30:03.481Z,38.13
2018-02-17T12:32:32.254Z,31.52
2018-02-17T12:35:01.048Z,41.13
2018-02-17T12:37:30.164Z,32.70
2018-02-17T12:39:58.940Z,26.83
2018-02-17T12:42:27.742Z,31.25
2018-02-17T12:44:56.501Z,33.30
2018-02-17T12:47:25.280Z,32.83
2018-02-17T12:49:54.111Z,34.58
2018-02-17T12:52:23.805Z,37.47
2018-02-17T12:54:52.632Z,32.00
2018-02-17T12:57:21.404Z,28.95
2018-02-17T12:59:50.304Z,37.67
2018-02-17T13:02:19.105Z,33.03
2018-02-17T13:04:48.755Z,32.72
2018-02-17T13:07:17.347Z,31.75
2018-02-17T13:09:45.935Z,35.08
2018-02-17T13:12:15.130Z,26.62
2018-02-17T13:14:46.016Z,28.65
2018-02-17T13:17:15.267Z,36.72
2018-02-17T13:25:32.124Z,36.50
2018-02-17T13:28:01.856Z,33.58
2018-02-17T13:30:31.560Z,33.92
2018-02-17T13:33:00.359Z,28.50
2018-02-17T13:35:29.253Z,31.87
2018-02-17T13:37:58.310Z,26.92
2018-02-17T13:40:27.157Z,33.53
2018-02-17T13:42:56.130Z,32.72
2018-02-17T13:45:24.914Z,30.80
2018-02-17T13:47:54.542Z,28.70
2018-02-17T13:50:23.363Z,30.90
2018-02-17T13:52:52.892Z,29.92
2018-02-17T13:55:21.697Z,22.87
2018-02-17T13:57:50.464Z,24.58
2018-02-17T14:00:20.023Z,30.55
2018-02-17T14:02:48.811Z,31.98
2018-02-17T14:05:17.572Z,24.77
2018-02-17T14:07:46.336Z,22.65
2018-02-17T14:10:15.880Z,26.75
2018-02-17T14:12:44.696Z,24.08
2018-02-17T14:15:13.480Z,26.10
2018-02-17T14:17:42.067Z,23.52
2018-02-17T14:20:10.866Z,30.90
2018-02-17T14:22:39.635Z,26.95
2018-02-17T14:25:08.443Z,32.22
2018-02-17T14:27:37.233Z,30.62
2018-02-17T14:30:05.860Z,22.35
2018-02-17T14:32:34.649Z,25.90
2018-02-17T14:35:03.471Z,33.65
2018-02-17T14:37:32.265Z,38.05
2018-02-17T14:40:01.029Z,26.95
2018-02-17T14:42:29.813Z,25.27
2018-02-17T14:44:58.579Z,24.12
2018-02-17T14:47:27.785Z,21.42
2018-02-17T14:49:56.585Z,19.17
2018-02-17T14:52:25.166Z,19.27
2018-02-17T14:54:53.736Z,18.70
2018-02-17T14:57:23.254Z,28.87
2018-02-17T14:59:52.021Z,21.02
2018-02-17T15:02:20.778Z,22.10
2018-02-17T15:04:49.528Z,30.48
2018-02-17T15:07:18.280Z,29.42
2018-02-17T15:09:47.047Z,21.62
2018-02-17T15:12:15.802Z,29.23
2018-02-17T15:14:44.569Z,21.77
2018-02-17T15:17:13.343Z,20.90
2018-02-17T15:19:42.773Z,15.65
2018-02-17T15:22:11.765Z,17.15
2018-02-17T15:24:40.529Z,20.30
2018-02-17T15:27:10.081Z,18.67
2018-02-17T15:29:38.832Z,19.08
2018-02-17T15:32:08.374Z,19.65
2018-02-17T15:34:37.133Z,20.10
2018-02-17T15:37:06.651Z,22.50
2018-02-17T15:39:35.405Z,28.52
2018-02-17T15:42:04.159Z,22.33
2018-02-17T15:44:32.917Z,29.45
2018-02-17T15:47:02.432Z,19.55
2018-02-17T15:49:31.192Z,24.12
2018-02-17T15:52:00.760Z,22.30
2018-02-17T15:54:29.548Z,29.30
2018-02-17T15:56:58.309Z,34.65
2018-02-17T15:59:27.091Z,32.28
2018-02-17T16:01:55.985Z,27.08
2018-02-17T16:04:24.565Z,25.60
2018-02-17T16:06:53.328Z,29.58
2018-02-17T16:09:22.096Z,25.77
2018-02-17T16:11:50.663Z,33.30
2018-02-17T16:14:19.488Z,28.02
2018-02-17T16:16:48.249Z,26.27
2018-02-17T16:19:16.908Z,27.17
2018-02-17T16:21:45.689Z,29.50
2018-02-17T16:24:14.472Z,34.33
2018-02-17T16:26:43.259Z,25.92
2018-02-17T16:29:12.040Z,26.25
2018-02-17T16:31:40.805Z,25.23
2018-02-17T16:34:09.573Z,31.83
2018-02-17T16:36:38.012Z,30.23
2018-02-17T16:39:06.791Z,29.27
2018-02-17T16:41:35.609Z,30.42
2018-02-17T16:44:04.395Z,35.00
2018-02-17T16:46:33.174Z,34.65
2018-02-17T16:49:01.948Z,28.45
2018-02-17T16:51:30.732Z,28.77
2018-02-17T16:53:59.532Z,30.08
2018-02-17T16:56:28.509Z,30.45
2018-02-17T16:58:58.048Z,31.12
2018-02-17T17:01:26.866Z,31.30
2018-02-17T17:03:55.634Z,32.47
2018-02-17T17:06:24.446Z,29.98
2018-02-17T17:08:53.225Z,35.42
2018-02-17T17:11:21.823Z,38.22
2018-02-17T17:13:50.591Z,28.30
2018-02-17T17:16:19.347Z,41.10
2018-02-17T17:18:48.108Z,38.30
2018-02-17T17:21:16.898Z,38.40
2018-02-17T17:23:46.432Z,34.63
2018-02-17T17:26:15.202Z,31.58
2018-02-17T17:28:44.733Z,37.40
2018-02-17T17:31:13.495Z,34.03
2018-02-17T17:33:43.033Z,35.75
2018-02-17T17:36:11.810Z,30.05
2018-02-17T17:38:40.576Z,33.72
2018-02-17T17:41:09.152Z,31.55
2018-02-17T17:43:37.938Z,31.98
2018-02-17T17:46:06.704Z,31.70
2018-02-17T17:48:35.480Z,33.75
2018-02-17T17:51:04.253Z,38.33
2018-02-17T17:53:33.013Z,28.60
2018-02-17T17:56:02.553Z,36.35
2018-02-17T17:58:31.331Z,43.78
2018-02-17T18:01:00.301Z,35.63
2018-02-17T18:03:29.650Z,36.65
2018-02-17T18:05:58.422Z,31.12
2018-02-17T18:08:27.212Z,29.37
2018-02-17T18:10:55.998Z,30.50
2018-02-17T18:13:24.781Z,34.00
2018-02-17T18:15:53.539Z,34.58
2018-02-17T18:18:22.319Z,32.20
2018-02-17T18:20:58.601Z,32.17
2018-02-17T18:23:28.168Z,50.72
2018-02-17T18:25:56.941Z,34.72
2018-02-17T18:28:26.641Z,28.92
2018-02-17T18:30:55.223Z,30.30
2018-02-17T18:33:23.808Z,40.97
2018-02-17T18:35:52.597Z,33.90
2018-02-17T18:38:21.380Z,34.90
2018-02-17T18:40:50.177Z,35.53
2018-02-17T18:43:18.963Z,27.30
2018-02-17T18:45:47.719Z,30.27
2018-02-17T18:48:16.544Z,32.17
2018-02-17T18:50:45.527Z,34.90
2018-02-17T18:53:15.056Z,26.40
2018-02-17T18:55:43.817Z,32.67
2018-02-17T18:58:13.332Z,27.77
2018-02-17T19:00:42.091Z,31.25
2018-02-17T19:03:10.684Z,28.05
2018-02-17T19:05:40.218Z,24.67
2018-02-17T20:42:08.041Z,20.90
2018-02-17T20:44:36.837Z,28.27
2018-02-17T20:47:05.602Z,27.15
2018-02-17T20:49:35.366Z,19.02
2018-02-17T20:52:04.136Z,21.37
2018-02-17T20:54:32.903Z,24.98
2018-02-17T20:57:01.720Z,21.08
2018-02-17T20:59:30.501Z,20.27
2018-02-17T21:01:59.272Z,22.17
2018-02-17T21:04:28.798Z,25.33
2018-02-17T21:06:57.568Z,22.25
2018-02-17T21:09:26.012Z,20.92
2018-02-17T21:11:54.820Z,24.60
2018-02-17T21:14:24.355Z,19.52
2018-02-17T21:16:53.112Z,28.27
2018-02-17T22:44:20.163Z,22.52
2018-02-17T22:46:49.524Z,25.27
2018-02-17T22:49:18.285Z,25.48
2018-02-17T22:51:47.043Z,34.72
2018-02-17T22:54:15.801Z,25.85
2018-02-17T22:56:44.556Z,21.33
2018-02-17T22:59:13.317Z,24.58
2018-02-17T23:01:42.858Z,32.92
2018-02-17T23:04:11.626Z,28.87
2018-02-17T23:06:40.823Z,21.80
2018-02-17T23:09:10.352Z,30.80
2018-02-17T23:11:39.129Z,28.62
2018-02-17T23:14:07.908Z,23.33
2018-02-17T23:16:37.431Z,22.50
2018-02-17T23:19:06.223Z,24.92
2018-02-17T23:21:35.140Z,32.50
2018-02-17T23:24:03.900Z,26.35
2018-02-17T23:26:32.668Z,27.83
2018-02-17T23:29:02.211Z,22.15
2018-02-17T23:31:30.966Z,27.50
2018-02-17T23:33:59.723Z,25.77
2018-02-17T23:36:28.480Z,23.27
2018-02-17T23:38:57.228Z,30.08
2018-02-17T23:41:26.757Z,27.10
2018-02-17T23:43:55.508Z,25.98
2018-02-17T23:46:24.263Z,24.52
2018-02-17T23:48:53.020Z,26.00
2018-02-17T23:51:21.795Z,25.35
2018-02-17T23:53:50.597Z,31.20
2018-02-17T23:56:19.361Z,28.92
2018-02-17T23:58:48.892Z,27.75
